createdAt,value
2022-08-17T00:00:40.310Z,21.35
2022-08-17T00:03:19.421Z,21.35
2022-08-17T00:05:54.513Z,21.38
2022-08-17T00:08:28.856Z,21.39
2022-08-17T00:11:00.918Z,21.37
2022-08-17T00:13:34.989Z,21.26
2022-08-17T00:16:09.638Z,21.25
2022-08-17T00:19:06.342Z,21.26
2022-08-17T00:22:29.971Z,21.28
2022-08-17T00:24:29.375Z,21.30
2022-08-17T00:27:01.999Z,21.32
2022-08-17T00:29:33.624Z,21.33
2022-08-17T00:33:12.432Z,21.33
2022-08-17T00:34:58.503Z,21.28
2022-08-17T00:37:30.235Z,21.22
2022-08-17T00:40:01.945Z,21.15
2022-08-17T00:42:33.829Z,21.10
2022-08-17T00:45:07.178Z,21.08
2022-08-17T00:47:38.987Z,21.05
2022-08-17T00:50:14.229Z,21.05
2022-08-17T00:52:52.107Z,21.04
2022-08-17T00:55:24.494Z,21.02
2022-08-17T00:57:59.706Z,21.02
2022-08-17T01:00:37.152Z,20.98
2022-08-17T01:03:13.376Z,20.95
2022-08-17T01:05:45.481Z,20.92
2022-08-17T01:08:20.675Z,20.89
2022-08-17T01:11:00.186Z,20.81
2022-08-17T01:13:41.006Z,20.67
2022-08-17T01:16:18.232Z,20.57
2022-08-17T01:18:53.224Z,20.49
2022-08-17T01:21:32.903Z,20.41
2022-08-17T01:24:05.614Z,20.42
2022-08-17T01:26:39.645Z,20.45
2022-08-17T01:29:12.770Z,20.43
2022-08-17T01:31:48.374Z,20.42
2022-08-17T01:34:22.347Z,20.46
2022-08-17T01:36:54.909Z,20.44
2022-08-17T01:39:31.608Z,20.47
2022-08-17T01:42:08.486Z,20.48
2022-08-17T01:44:42.817Z,20.49
2022-08-17T01:47:14.930Z,20.43
2022-08-17T01:49:46.610Z,20.42
2022-08-17T01:52:18.473Z,20.43
2022-08-17T01:54:52.511Z,20.45
2022-08-17T01:57:24.323Z,20.45
2022-08-17T01:59:56.262Z,20.48
2022-08-17T02:02:30.483Z,20.49
2022-08-17T02:05:03.141Z,20.50
2022-08-17T02:07:59.375Z,20.49
2022-08-17T02:10:33.702Z,20.48
2022-08-17T02:13:06.882Z,20.46
2022-08-17T02:15:38.739Z,20.42
2022-08-17T02:18:11.800Z,20.40
2022-08-17T02:20:44.207Z,20.39
2022-08-17T02:23:16.581Z,20.37
2022-08-17T02:25:49.028Z,20.31
2022-08-17T02:28:21.088Z,20.23
2022-08-17T02:31:01.353Z,20.17
2022-08-17T02:33:43.011Z,20.10
2022-08-17T02:36:14.055Z,20.05
2022-08-17T02:38:45.656Z,19.97
2022-08-17T02:41:17.597Z,19.95
2022-08-17T02:43:49.168Z,19.96
2022-08-17T02:46:20.900Z,19.91
2022-08-17T02:48:52.575Z,19.90
2022-08-17T02:51:24.227Z,19.93
2022-08-17T02:54:41.100Z,19.96
2022-08-17T02:56:47.575Z,19.97
2022-08-17T02:59:19.226Z,19.98
2022-08-17T03:01:51.222Z,19.96
2022-08-17T03:04:23.193Z,19.95
2022-08-17T03:06:54.853Z,19.96
2022-08-17T03:09:26.414Z,19.96
2022-08-17T03:12:04.321Z,19.96
2022-08-17T03:14:41.258Z,19.97
2022-08-17T03:17:13.860Z,19.97
2022-08-17T03:19:49.217Z,19.97
2022-08-17T03:22:47.939Z,19.97
2022-08-17T03:25:15.242Z,19.96
2022-08-17T03:27:51.658Z,19.95
2022-08-17T03:30:24.640Z,19.93
2022-08-17T03:32:59.635Z,19.91
2022-08-17T03:35:34.389Z,19.86
2022-08-17T03:38:06.543Z,19.85
2022-08-17T03:40:57.101Z,19.83
2022-08-17T03:43:33.760Z,19.84
2022-08-17T03:46:34.423Z,19.86
2022-08-17T03:49:27.485Z,19.89
2022-08-17T03:52:17.378Z,19.91
2022-08-17T03:55:18.404Z,19.94
2022-08-17T03:57:50.106Z,19.97
2022-08-17T04:00:21.999Z,19.98
2022-08-17T04:02:58.716Z,20.00
2022-08-17T04:05:30.444Z,20.03
2022-08-17T04:08:08.183Z,20.06
2022-08-17T04:10:44.962Z,20.07
2022-08-17T04:13:24.841Z,20.09
2022-08-17T04:15:57.460Z,20.11
2022-08-17T04:18:29.268Z,20.17
2022-08-17T04:21:01.258Z,20.23
2022-08-17T04:23:35.097Z,20.27
2022-08-17T04:26:06.990Z,20.32
2022-08-17T04:28:38.957Z,20.38
2022-08-17T04:31:10.849Z,20.45
2022-08-17T04:33:44.071Z,20.61
2022-08-17T04:36:16.905Z,21.10
2022-08-17T04:38:48.578Z,22.26
2022-08-17T04:41:37.733Z,23.44
2022-08-17T04:44:09.276Z,24.56
2022-08-17T04:46:41.451Z,24.97
2022-08-17T04:49:14.070Z,24.95
2022-08-17T04:51:56.164Z,25.03
2022-08-17T04:54:28.589Z,24.82
2022-08-17T04:57:00.482Z,24.69
2022-08-17T04:59:32.201Z,24.59
2022-08-17T05:02:03.920Z,24.54
2022-08-17T05:04:35.656Z,24.40
2022-08-17T05:07:08.005Z,24.41
2022-08-17T05:09:39.612Z,24.17
2022-08-17T05:12:11.574Z,23.90
2022-08-17T05:14:43.126Z,23.78
2022-08-17T05:17:14.778Z,23.63
2022-08-17T05:19:51.779Z,23.52
2022-08-17T05:22:23.701Z,23.42
2022-08-17T05:24:56.001Z,23.36
2022-08-17T05:27:34.436Z,23.26
2022-08-17T05:30:09.859Z,23.23
2022-08-17T05:32:56.669Z,23.18
2022-08-17T05:35:29.792Z,23.11
2022-08-17T05:38:02.005Z,23.11
2022-08-17T05:40:33.624Z,23.02
2022-08-17T05:43:10.609Z,23.03
2022-08-17T05:45:55.191Z,23.10
2022-08-17T05:48:39.072Z,23.15
2022-08-17T05:51:31.321Z,23.17
2022-08-17T05:54:18.861Z,23.15
2022-08-17T05:57:04.356Z,23.12
2022-08-17T05:59:46.417Z,23.11
2022-08-17T06:02:23.590Z,23.12
2022-08-17T06:05:10.814Z,23.19
2022-08-17T06:07:50.002Z,23.20
2022-08-17T06:10:29.462Z,23.25
2022-08-17T06:13:17.927Z,23.31
2022-08-17T06:16:00.406Z,23.36
2022-08-17T06:18:40.430Z,23.38
2022-08-17T06:21:18.359Z,23.50
2022-08-17T06:24:03.193Z,23.61
2022-08-17T06:26:43.054Z,23.68
2022-08-17T06:29:24.490Z,23.78
2022-08-17T06:31:56.314Z,23.84
2022-08-17T06:34:28.236Z,23.86
2022-08-17T06:37:15.477Z,23.89
2022-08-17T06:39:56.686Z,23.99
2022-08-17T06:42:54.943Z,24.08
2022-08-17T06:45:36.396Z,24.22
2022-08-17T06:48:16.372Z,24.31
2022-08-17T06:50:54.080Z,24.39
2022-08-17T06:53:30.077Z,24.49
2022-08-17T06:56:06.376Z,24.61
2022-08-17T06:58:40.435Z,24.73
2022-08-17T07:01:16.659Z,24.84
2022-08-17T07:03:55.029Z,24.93
2022-08-17T07:06:33.902Z,25.00
2022-08-17T07:09:15.941Z,25.09
2022-08-17T07:11:54.301Z,25.19
2022-08-17T07:14:36.898Z,25.31
2022-08-17T07:17:11.742Z,25.43
2022-08-17T07:19:46.483Z,25.54
2022-08-17T07:22:53.634Z,25.64
2022-08-17T07:25:25.737Z,25.75
2022-08-17T07:28:00.356Z,25.89
2022-08-17T07:30:37.173Z,26.01
2022-08-17T07:33:22.853Z,26.19
2022-08-17T07:35:54.917Z,26.35
2022-08-17T07:38:28.733Z,26.55
2022-08-17T07:41:06.389Z,26.73
2022-08-17T07:43:48.234Z,26.81
2022-08-17T07:46:40.363Z,26.93
2022-08-17T07:49:35.327Z,27.11
2022-08-17T07:52:47.292Z,27.28
2022-08-17T07:55:23.047Z,27.41
2022-08-17T07:58:00.265Z,27.39
2022-08-17T08:00:33.729Z,27.43
2022-08-17T08:03:27.332Z,27.55
2022-08-17T08:06:03.166Z,27.66
2022-08-17T08:08:38.971Z,27.83
2022-08-17T08:11:15.415Z,27.99
2022-08-17T08:13:50.006Z,28.10
2022-08-17T08:16:30.350Z,28.18
2022-08-17T08:19:03.520Z,28.22
2022-08-17T08:21:47.582Z,28.29
2022-08-17T08:24:36.597Z,28.43
2022-08-17T08:27:23.118Z,28.51
2022-08-17T08:29:58.289Z,28.57
2022-08-17T08:32:42.918Z,28.65
2022-08-17T08:35:26.787Z,28.69
2022-08-17T08:38:07.652Z,28.74
2022-08-17T08:40:57.457Z,28.80
2022-08-17T08:43:38.851Z,28.95
2022-08-17T08:46:20.070Z,28.99
2022-08-17T08:49:39.038Z,29.12
2022-08-17T08:52:28.353Z,29.23
2022-08-17T08:55:07.647Z,29.27
2022-08-17T08:57:47.149Z,29.31
2022-08-17T09:00:21.434Z,29.36
2022-08-17T09:03:49.705Z,29.47
2022-08-17T09:06:39.477Z,29.51
2022-08-17T09:09:21.453Z,29.60
2022-08-17T09:12:04.132Z,29.73
2022-08-17T09:14:45.256Z,29.91
2022-08-17T09:17:22.426Z,30.07
2022-08-17T09:20:00.096Z,30.14
2022-08-17T09:22:38.506Z,30.21
2022-08-17T09:25:13.389Z,30.28
2022-08-17T09:27:53.570Z,30.37
2022-08-17T09:30:23.861Z,30.43
2022-08-17T09:32:59.796Z,30.48
2022-08-17T09:35:39.623Z,30.51
2022-08-17T09:38:30.323Z,30.43
2022-08-17T09:41:13.678Z,30.45
2022-08-17T09:43:53.224Z,30.49
2022-08-17T09:46:31.153Z,30.58
2022-08-17T09:49:09.840Z,30.73
2022-08-17T09:51:48.215Z,30.80
2022-08-17T09:54:39.127Z,30.87
2022-08-17T09:57:30.409Z,31.00
2022-08-17T10:00:18.895Z,31.11
2022-08-17T10:03:11.958Z,31.13
2022-08-17T10:05:47.990Z,31.14
2022-08-17T10:08:32.572Z,31.15
2022-08-17T10:11:14.275Z,31.18
2022-08-17T10:13:53.485Z,31.30
2022-08-17T10:16:32.102Z,31.34
2022-08-17T10:19:11.558Z,31.40
2022-08-17T10:22:32.604Z,31.46
2022-08-17T10:25:22.935Z,31.59
2022-08-17T10:27:59.854Z,31.75
2022-08-17T10:30:35.882Z,31.90
2022-08-17T10:33:16.147Z,32.00
2022-08-17T10:35:53.598Z,32.11
2022-08-17T10:38:42.321Z,32.22
2022-08-17T10:41:34.730Z,32.30
2022-08-17T10:44:38.119Z,32.29
2022-08-17T10:47:11.520Z,32.31
2022-08-17T10:49:47.969Z,32.30
2022-08-17T10:52:51.915Z,32.35
2022-08-17T10:55:25.859Z,32.35
2022-08-17T10:58:24.630Z,32.37
2022-08-17T11:01:04.029Z,32.48
2022-08-17T11:03:36.095Z,32.62
2022-08-17T11:06:21.626Z,32.77
2022-08-17T11:09:24.500Z,33.00
2022-08-17T11:12:27.282Z,33.20
2022-08-17T11:15:15.934Z,33.22
2022-08-17T11:18:03.532Z,33.30
2022-08-17T11:21:04.838Z,33.50
2022-08-17T11:23:54.913Z,33.74
2022-08-17T11:26:29.819Z,33.78
2022-08-17T11:29:09.045Z,33.77
2022-08-17T11:31:44.176Z,33.56
2022-08-17T11:34:26.372Z,33.50
2022-08-17T11:37:38.668Z,33.30
2022-08-17T11:40:38.990Z,33.13
2022-08-17T11:43:46.299Z,33.15
2022-08-17T11:46:54.298Z,33.15
2022-08-17T11:50:11.522Z,33.15
2022-08-17T11:52:46.733Z,33.30
2022-08-17T11:55:50.742Z,33.55
2022-08-17T11:58:42.199Z,33.78
2022-08-17T12:01:16.254Z,34.02
2022-08-17T12:03:55.797Z,34.20
2022-08-17T12:06:41.241Z,34.37
2022-08-17T12:09:18.619Z,34.49
2022-08-17T12:12:13.319Z,34.61
2022-08-17T12:15:09.639Z,34.73
2022-08-17T12:17:48.500Z,34.74
2022-08-17T12:20:25.614Z,34.76
2022-08-17T12:23:07.680Z,34.82
2022-08-17T12:25:44.312Z,34.86
2022-08-17T12:28:26.858Z,34.78
2022-08-17T12:31:02.503Z,34.49
2022-08-17T12:33:36.706Z,34.23
2022-08-17T12:36:15.254Z,34.03
2022-08-17T12:38:53.738Z,33.78
2022-08-17T12:41:39.021Z,33.55
2022-08-17T12:44:16.750Z,33.41
2022-08-17T12:46:56.064Z,33.28
2022-08-17T12:49:31.828Z,33.15
2022-08-17T12:52:16.019Z,33.06
2022-08-17T12:54:54.652Z,32.91
2022-08-17T12:57:33.244Z,32.85
2022-08-17T13:00:17.821Z,32.76
2022-08-17T13:02:53.347Z,32.73
2022-08-17T13:05:28.813Z,32.76
2022-08-17T13:08:04.519Z,32.83
2022-08-17T13:10:37.888Z,32.98
2022-08-17T13:13:21.952Z,33.06
2022-08-17T13:15:57.234Z,33.18
2022-08-17T13:18:42.901Z,33.26
2022-08-17T13:21:30.804Z,33.31
2022-08-17T13:24:05.763Z,33.37
2022-08-17T13:26:40.414Z,33.39
2022-08-17T13:29:26.056Z,33.36
2022-08-17T13:32:16.325Z,33.38
2022-08-17T13:35:12.993Z,33.51
2022-08-17T13:38:01.421Z,33.59
2022-08-17T13:40:41.733Z,33.67
2022-08-17T13:43:13.636Z,33.73
2022-08-17T13:45:52.392Z,33.66
2022-08-17T13:48:28.364Z,33.55
2022-08-17T13:51:21.276Z,33.57
2022-08-17T13:53:57.782Z,33.64
2022-08-17T13:56:38.867Z,33.70
2022-08-17T13:59:14.325Z,33.79
2022-08-17T14:01:53.598Z,33.87
2022-08-17T14:04:28.066Z,33.82
2022-08-17T14:07:01.926Z,33.71
2022-08-17T14:09:37.705Z,33.67
2022-08-17T14:12:15.514Z,33.59
2022-08-17T14:14:47.763Z,33.49
2022-08-17T14:17:20.183Z,33.30
2022-08-17T14:19:52.358Z,33.13
2022-08-17T14:22:27.047Z,33.02
2022-08-17T14:24:59.708Z,32.89
2022-08-17T14:27:34.690Z,32.76
2022-08-17T14:30:26.987Z,32.74
2022-08-17T14:33:02.359Z,32.91
2022-08-17T14:35:34.545Z,33.09
2022-08-17T14:38:06.230Z,33.27
2022-08-17T14:40:39.287Z,33.36
2022-08-17T14:43:11.049Z,33.39
2022-08-17T14:45:42.608Z,33.45
2022-08-17T14:48:14.553Z,33.37
2022-08-17T14:50:46.428Z,33.31
2022-08-17T14:53:20.391Z,33.27
2022-08-17T14:55:53.651Z,33.25
2022-08-17T14:58:26.097Z,33.22
2022-08-17T15:00:58.238Z,33.17
2022-08-17T15:03:30.627Z,33.14
2022-08-17T15:06:02.815Z,33.09
2022-08-17T15:08:34.498Z,33.01
2022-08-17T15:11:07.076Z,32.88
2022-08-17T15:13:52.850Z,32.74
2022-08-17T15:16:24.787Z,32.58
2022-08-17T15:18:56.388Z,32.47
2022-08-17T15:21:28.077Z,32.41
2022-08-17T15:24:00.050Z,32.38
2022-08-17T15:26:31.789Z,32.25
2022-08-17T15:29:03.462Z,32.10
2022-08-17T15:31:35.606Z,31.96
2022-08-17T15:34:07.906Z,31.86
2022-08-17T15:36:40.665Z,31.80
2022-08-17T15:39:22.209Z,31.73
2022-08-17T15:41:58.385Z,31.63
2022-08-17T15:44:32.676Z,31.53
2022-08-17T15:47:06.976Z,31.44
2022-08-17T15:49:41.439Z,31.37
2022-08-17T15:52:21.722Z,31.26
2022-08-17T15:54:55.353Z,31.17
2022-08-17T15:57:28.256Z,31.10
2022-08-17T16:00:00.298Z,31.07
2022-08-17T16:03:44.795Z,31.05
2022-08-17T16:05:30.142Z,31.04
2022-08-17T16:08:03.202Z,31.05
2022-08-17T16:10:35.979Z,31.07
2022-08-17T16:13:17.765Z,31.06
2022-08-17T16:15:56.669Z,31.05
2022-08-17T16:18:31.763Z,31.02
2022-08-17T16:21:19.771Z,31.01
2022-08-17T16:23:53.708Z,30.98
2022-08-17T16:26:26.325Z,30.94
2022-08-17T16:29:00.773Z,30.88
2022-08-17T16:31:33.061Z,30.83
2022-08-17T16:34:16.838Z,30.80
2022-08-17T16:36:55.969Z,30.75
2022-08-17T16:39:30.862Z,30.69
2022-08-17T16:42:03.179Z,30.63
2022-08-17T16:44:35.032Z,30.58
2022-08-17T16:47:07.468Z,30.55
2022-08-17T16:49:39.502Z,30.47
2022-08-17T16:52:11.956Z,30.41
2022-08-17T16:54:47.165Z,30.35
2022-08-17T16:57:19.710Z,30.30
2022-08-17T16:59:51.703Z,30.24
2022-08-17T17:02:32.159Z,30.18
2022-08-17T17:05:08.303Z,30.14
2022-08-17T17:08:00.945Z,30.10
2022-08-17T17:10:38.847Z,30.05
2022-08-17T17:13:19.154Z,30.00
2022-08-17T17:15:58.595Z,29.96
2022-08-17T17:18:39.750Z,29.92
2022-08-17T17:21:17.628Z,29.87
2022-08-17T17:23:56.113Z,29.82
2022-08-17T17:26:49.439Z,29.75
2022-08-17T17:29:46.566Z,29.68
2022-08-17T17:32:29.702Z,29.60
2022-08-17T17:35:06.697Z,29.51
2022-08-17T17:37:39.198Z,29.43
2022-08-17T17:40:23.186Z,29.34
2022-08-17T17:43:14.237Z,29.26
2022-08-17T17:45:52.353Z,29.18
2022-08-17T17:48:24.358Z,29.10
2022-08-17T17:51:09.493Z,29.02
2022-08-17T17:53:52.246Z,28.96
2022-08-17T17:56:44.020Z,28.90
2022-08-17T17:59:26.779Z,28.83
2022-08-17T18:02:05.517Z,28.78
2022-08-17T18:04:46.471Z,28.72
2022-08-17T18:07:30.234Z,28.67
2022-08-17T18:10:29.885Z,28.60
2022-08-17T18:13:12.800Z,28.50
2022-08-17T18:15:51.540Z,28.41
2022-08-17T18:18:40.478Z,28.32
2022-08-17T18:21:17.007Z,28.22
2022-08-17T18:23:55.805Z,28.14
2022-08-17T18:26:50.306Z,28.07
2022-08-17T18:29:34.526Z,28.01
2022-08-17T18:32:28.044Z,27.93
2022-08-17T18:35:28.005Z,27.87
2022-08-17T18:38:20.440Z,27.80
2022-08-17T18:41:03.151Z,27.72
2022-08-17T18:43:52.716Z,27.66
2022-08-17T18:46:30.482Z,27.62
2022-08-17T18:49:05.401Z,27.58
2022-08-17T18:51:43.272Z,27.53
2022-08-17T18:54:21.377Z,27.47
2022-08-17T18:56:55.484Z,27.44
2022-08-17T18:59:36.619Z,27.42
2022-08-17T19:02:44.638Z,27.39
2022-08-17T19:05:32.094Z,27.36
2022-08-17T19:08:21.101Z,27.33
2022-08-17T19:10:56.882Z,27.30
2022-08-17T19:13:36.646Z,27.26
2022-08-17T19:16:15.758Z,27.22
2022-08-17T19:18:52.737Z,27.19
2022-08-17T19:21:28.605Z,27.17
2022-08-17T19:24:06.232Z,27.17
2022-08-17T19:26:53.927Z,27.14
2022-08-17T19:29:38.433Z,27.12
2022-08-17T19:32:12.479Z,27.10
2022-08-17T19:34:44.632Z,27.07
2022-08-17T19:37:36.613Z,27.03
2022-08-17T19:40:41.770Z,27.00
2022-08-17T19:43:22.046Z,26.97
2022-08-17T19:46:01.587Z,26.94
2022-08-17T19:48:47.081Z,26.91
2022-08-17T19:51:35.551Z,26.89
2022-08-17T19:54:14.365Z,26.87
2022-08-17T19:56:55.790Z,26.82
2022-08-17T19:59:46.525Z,26.78
2022-08-17T20:02:26.613Z,26.73
2022-08-17T20:05:02.938Z,26.68
2022-08-17T20:07:44.626Z,26.65
2022-08-17T20:10:34.253Z,26.61
2022-08-17T20:13:13.558Z,26.57
2022-08-17T20:15:46.938Z,26.52
2022-08-17T20:18:25.424Z,26.48
2022-08-17T20:21:03.769Z,26.39
2022-08-17T20:23:46.533Z,26.33
2022-08-17T20:26:23.205Z,26.28
2022-08-17T20:29:37.182Z,26.23
2022-08-17T20:32:27.970Z,26.13
2022-08-17T20:35:27.510Z,26.07
2022-08-17T20:38:02.346Z,26.00
2022-08-17T20:40:38.285Z,25.92
2022-08-17T20:43:45.057Z,25.88
2022-08-17T20:46:34.395Z,25.82
2022-08-17T20:49:27.961Z,25.77
2022-08-17T20:52:07.804Z,25.69
2022-08-17T20:54:53.006Z,25.61
2022-08-17T20:57:47.988Z,25.55
2022-08-17T21:00:45.738Z,25.52
2022-08-17T21:03:51.020Z,25.48
2022-08-17T21:06:26.141Z,25.44
2022-08-17T21:09:19.535Z,25.41
2022-08-17T21:12:05.576Z,25.39
2022-08-17T21:15:02.285Z,25.36
2022-08-17T21:17:49.975Z,25.33
2022-08-17T21:20:35.651Z,25.31
2022-08-17T21:23:32.950Z,25.29
2022-08-17T21:26:30.139Z,25.27
2022-08-17T21:29:29.879Z,25.24
2022-08-17T21:32:24.233Z,25.22
2022-08-17T21:35:28.677Z,25.20
2022-08-17T21:38:06.262Z,25.19
2022-08-17T21:40:38.337Z,25.18
2022-08-17T21:43:24.582Z,25.15
2022-08-17T21:46:04.614Z,25.12
2022-08-17T21:48:44.696Z,25.10
2022-08-17T21:51:22.051Z,25.04
2022-08-17T21:53:56.823Z,24.99
2022-08-17T21:56:32.857Z,24.94
2022-08-17T21:59:06.471Z,24.90
2022-08-17T22:01:40.928Z,24.86
2022-08-17T22:04:25.421Z,24.84
2022-08-17T22:06:58.960Z,24.82
2022-08-17T22:09:33.130Z,24.79
2022-08-17T22:12:11.434Z,24.76
2022-08-17T22:14:53.095Z,24.73
2022-08-17T22:17:27.909Z,24.70
2022-08-17T22:20:02.573Z,24.69
2022-08-17T22:22:59.947Z,24.68
2022-08-17T22:25:32.636Z,24.68
2022-08-17T22:28:06.539Z,24.67
2022-08-17T22:30:40.203Z,24.63
2022-08-17T22:33:38.602Z,24.61
2022-08-17T22:36:28.910Z,24.58
2022-08-17T22:39:23.242Z,24.58
2022-08-17T22:41:59.484Z,24.59
2022-08-17T22:44:35.701Z,24.58
2022-08-17T22:47:24.267Z,24.58
2022-08-17T22:49:58.985Z,24.58
2022-08-17T22:52:35.689Z,24.58
2022-08-17T22:55:32.694Z,24.58
2022-08-17T22:58:28.234Z,24.57
2022-08-17T23:01:28.344Z,24.55
2022-08-17T23:04:02.376Z,24.52
2022-08-17T23:06:35.461Z,24.48
2022-08-17T23:09:08.490Z,24.45
2022-08-17T23:11:49.979Z,24.40
2022-08-17T23:14:23.244Z,24.38
2022-08-17T23:16:54.952Z,24.35
2022-08-17T23:19:27.501Z,24.33
2022-08-17T23:22:00.645Z,24.31
2022-08-17T23:24:36.218Z,24.29
2022-08-17T23:27:07.873Z,24.26
2022-08-17T23:29:42.181Z,24.24
2022-08-17T23:32:16.373Z,24.24
2022-08-17T23:34:49.537Z,24.22
2022-08-17T23:37:21.769Z,24.19
2022-08-17T23:39:53.585Z,24.17
2022-08-17T23:42:25.535Z,24.15
2022-08-17T23:44:57.234Z,24.13
2022-08-17T23:47:29.115Z,24.12
2022-08-17T23:50:02.491Z,24.12
2022-08-17T23:52:36.968Z,24.12
2022-08-17T23:55:10.460Z,24.09
2022-08-17T23:57:42.722Z,24.05
